Time;durP1;ratioP1;P1;durP2;ratioP2;P2;SDS_P1;SDS_P2;PMS_P1;PMS_P2;Temp;Humidity;BMP_temperature;BMP_pressure;BME280_temperature;BME280_humidity;BME280_pressure;Samples;Min_cycle;Max_cycle;Signal;HPM_P1;HPM_P2
2022/10/24 00:01:32;;;;;;;5.93;3.20;;;15.60;99.90;;;;;;4918163;29;20482;-75
2022/10/24 00:04:00;;;;;;;4.87;2.93;;;15.50;99.90;;;;;;4917090;29;20476;-76
2022/10/24 00:06:29;;;;;;;5.43;3.03;;;15.60;99.90;;;;;;4918200;29;20419;-75
2022/10/24 00:08:58;;;;;;;4.57;3.00;;;15.50;99.90;;;;;;4918120;29;20462;-76
2022/10/24 00:11:28;;;;;;;6.13;3.10;;;15.50;99.90;;;;;;4916744;29;20476;-75
2022/10/24 00:13:58;;;;;;;5.73;2.77;;;15.50;99.90;;;;;;4918411;29;20425;-76
2022/10/24 00:16:27;;;;;;;6.73;3.20;;;15.50;99.90;;;;;;4918334;29;20448;-76
2022/10/24 00:18:55;;;;;;;6.80;3.03;;;15.50;99.90;;;;;;4916693;29;20963;-76
2022/10/24 00:21:23;;;;;;;4.20;2.70;;;15.50;99.90;;;;;;4916522;29;20508;-75
2022/10/24 00:23:52;;;;;;;5.57;3.73;;;15.50;99.90;;;;;;4916644;29;20460;-76
2022/10/24 00:26:20;;;;;;;5.67;3.50;;;15.50;99.90;;;;;;4918134;29;20460;-76
2022/10/24 00:28:48;;;;;;;5.37;3.10;;;15.50;99.90;;;;;;4917868;29;20440;-76
2022/10/24 00:31:18;;;;;;;5.50;3.10;;;15.50;99.90;;;;;;4917688;29;20811;-76
2022/10/24 00:33:47;;;;;;;6.87;3.20;;;15.50;99.90;;;;;;4917790;29;20785;-76
2022/10/24 00:36:19;;;;;;;6.10;3.03;;;15.50;99.90;;;;;;4917779;29;20476;-76
2022/10/24 00:38:47;;;;;;;5.73;3.23;;;15.40;99.90;;;;;;4917624;29;20759;-76
2022/10/24 00:41:18;;;;;;;7.30;3.53;;;15.40;99.90;;;;;;4917748;29;20468;-76
2022/10/24 00:43:46;;;;;;;4.77;3.00;;;15.40;99.90;;;;;;4918176;29;20454;-76
2022/10/24 00:46:16;;;;;;;6.20;3.40;;;15.40;99.90;;;;;;4918028;29;20467;-76
2022/10/24 00:48:48;;;;;;;5.70;2.90;;;15.40;99.90;;;;;;4917766;29;20448;-76
2022/10/24 00:51:23;;;;;;;5.07;3.20;;;15.40;99.90;;;;;;4917501;29;20439;-76
2022/10/24 00:53:56;;;;;;;4.47;3.00;;;15.40;99.90;;;;;;4917314;29;20429;-76
2022/10/24 00:56:35;;;;;;;7.63;3.37;;;15.40;99.90;;;;;;4917539;29;20775;-76
2022/10/24 00:59:05;;;;;;;4.93;3.17;;;15.40;99.90;;;;;;4917810;29;20441;-76
2022/10/24 01:01:34;;;;;;;6.27;3.37;;;15.40;99.90;;;;;;4918045;29;20472;-76
2022/10/24 01:04:02;;;;;;;6.10;3.60;;;15.30;99.90;;;;;;4916114;29;20961;-76
2022/10/24 01:06:44;;;;;;;5.17;3.20;;;15.30;99.90;;;;;;4917595;29;20455;-76
2022/10/24 01:09:22;;;;;;;6.00;3.37;;;15.30;99.90;;;;;;4916013;29;20444;-76
2022/10/24 01:12:01;;;;;;;7.33;3.07;;;15.40;99.90;;;;;;4918106;29;20460;-76
2022/10/24 01:14:45;;;;;;;5.43;3.20;;;15.40;99.90;;;;;;4916122;29;20436;-76
2022/10/24 01:17:19;;;;;;;6.13;2.90;;;15.40;99.90;;;;;;4916007;29;20824;-76
2022/10/24 01:20:20;;;;;;;4.20;2.90;;;15.40;99.90;;;;;;4915900;29;20448;-76
2022/10/24 01:23:07;;;;;;;5.73;2.90;;;15.30;99.90;;;;;;4915935;29;21080;-76
2022/10/24 01:25:47;;;;;;;8.50;6.60;;;15.30;99.90;;;;;;4917206;29;20434;-76
2022/10/24 01:28:21;;;;;;;9.83;5.40;;;15.30;99.90;;;;;;4915965;29;20476;-76
2022/10/24 01:30:57;;;;;;;6.77;4.53;;;15.30;99.90;;;;;;4917090;29;20524;-76
2022/10/24 01:33:30;;;;;;;6.90;4.07;;;15.30;99.90;;;;;;4915988;29;20456;-76
2022/10/24 01:36:03;;;;;;;4.87;2.87;;;15.20;99.90;;;;;;4917418;29;20399;-76
2022/10/24 01:38:36;;;;;;;5.83;4.03;;;15.20;99.90;;;;;;4915780;29;20455;-76
2022/10/24 01:41:07;;;;;;;7.10;3.53;;;15.20;99.90;;;;;;4917448;29;20464;-76
2022/10/24 01:43:40;;;;;;;5.03;3.37;;;15.20;99.90;;;;;;4917501;29;20471;-75
2022/10/24 01:46:14;;;;;;;5.53;4.10;;;15.20;99.90;;;;;;4915945;29;20503;-76
2022/10/24 01:48:47;;;;;;;8.40;4.10;;;15.20;99.90;;;;;;4917510;29;20429;-76
2022/10/24 01:51:18;;;;;;;6.87;3.40;;;15.10;99.90;;;;;;4917248;29;20879;-75
2022/10/24 01:53:48;;;;;;;4.80;3.57;;;15.10;99.90;;;;;;4916987;29;20439;-75
2022/10/24 01:56:16;;;;;;;5.40;3.20;;;15.10;99.90;;;;;;4916893;29;20863;-75
2022/10/24 01:58:44;;;;;;;4.43;3.00;;;15.10;99.90;;;;;;4915623;29;20453;-76
2022/10/24 02:01:20;;;;;;;4.83;3.30;;;15.10;99.90;;;;;;4916782;29;20465;-75
2022/10/24 02:03:53;;;;;;;5.53;3.73;;;15.10;99.90;;;;;;4915829;29;20439;-76
2022/10/24 02:06:25;;;;;;;9.53;4.43;;;15.10;99.90;;;;;;4919168;29;20448;-76
2022/10/24 02:08:57;;;;;;;5.90;3.90;;;15.00;99.90;;;;;;4920406;29;20429;-76
2022/10/24 02:11:25;;;;;;;7.20;3.07;;;15.00;99.90;;;;;;4919066;29;20483;-76
2022/10/24 02:13:59;;;;;;;4.17;3.03;;;15.00;99.90;;;;;;4919057;29;21013;-76
2022/10/24 02:16:29;;;;;;;5.67;2.93;;;15.00;99.90;;;;;;4920462;29;20950;-76
2022/10/24 02:19:00;;;;;;;6.07;3.47;;;15.00;99.90;;;;;;4918948;29;20456;-76
2022/10/24 02:21:35;;;;;;;6.33;3.50;;;15.00;99.90;;;;;;4919874;29;20520;-76
2022/10/24 02:24:10;;;;;;;6.23;3.77;;;15.00;99.90;;;;;;4920089;29;20463;-76
2022/10/24 02:26:45;;;;;;;6.70;3.27;;;15.00;99.90;;;;;;4920367;29;20515;-76
2022/10/24 02:29:16;;;;;;;8.40;3.17;;;14.90;99.90;;;;;;4920374;29;20432;-76
2022/10/24 02:31:52;;;;;;;5.43;3.73;;;15.00;99.90;;;;;;4921091;29;20479;-76
2022/10/24 02:34:22;;;;;;;6.77;3.33;;;14.90;99.90;;;;;;4920191;29;20421;-75
2022/10/24 02:36:53;;;;;;;5.67;3.60;;;14.90;99.90;;;;;;4920061;29;20440;-76
2022/10/24 02:39:23;;;;;;;4.80;3.43;;;14.90;99.90;;;;;;4919817;29;20428;-76
2022/10/24 02:41:54;;;;;;;4.40;2.90;;;14.90;99.90;;;;;;4919675;29;20525;-76
2022/10/24 02:44:24;;;;;;;6.20;3.37;;;14.90;99.90;;;;;;4918659;29;20468;-76
2022/10/24 02:46:56;;;;;;;4.00;3.10;;;14.90;99.90;;;;;;4918386;29;20468;-76
2022/10/24 02:49:24;;;;;;;5.17;3.53;;;14.90;99.90;;;;;;4920243;29;20746;-76
2022/10/24 02:51:53;;;;;;;6.10;3.03;;;14.90;99.90;;;;;;4920069;29;20457;-76
2022/10/24 02:54:22;;;;;;;7.10;3.57;;;14.90;99.90;;;;;;4919421;29;20436;-76
2022/10/24 02:57:02;;;;;;;7.50;3.50;;;14.80;99.90;;;;;;4919871;29;20774;-76
2022/10/24 02:59:31;;;;;;;5.07;3.60;;;14.80;99.90;;;;;;4919717;29;20464;-76
2022/10/24 03:02:00;;;;;;;5.73;3.50;;;14.80;99.90;;;;;;4919563;29;20873;-76
2022/10/24 03:04:28;;;;;;;7.10;4.73;;;14.80;99.90;;;;;;4918028;29;20472;-75
2022/10/24 03:06:56;;;;;;;5.53;3.20;;;14.70;99.90;;;;;;4919586;29;20987;-76
2022/10/24 03:09:24;;;;;;;5.83;3.97;;;14.70;99.90;;;;;;4918186;29;20460;-76
2022/10/24 03:11:52;;;;;;;8.70;4.13;;;14.70;99.90;;;;;;4919056;29;20480;-76
2022/10/24 03:14:20;;;;;;;6.13;3.33;;;14.70;99.90;;;;;;4919191;29;20496;-76
2022/10/24 03:16:48;;;;;;;7.20;3.20;;;14.60;99.90;;;;;;4917873;29;20563;-76
2022/10/24 03:19:18;;;;;;;6.70;3.47;;;14.60;99.90;;;;;;4919382;29;20453;-76
2022/10/24 03:21:46;;;;;;;4.70;3.40;;;14.60;99.90;;;;;;4919218;29;20475;-75
2022/10/24 03:24:14;;;;;;;5.63;3.30;;;14.60;99.90;;;;;;4919191;29;20472;-76
2022/10/24 03:26:58;;;;;;;5.63;3.40;;;14.60;99.90;;;;;;4919542;29;20421;-75
2022/10/24 03:29:26;;;;;;;9.03;4.03;;;14.50;99.90;;;;;;4919119;29;20448;-76
2022/10/24 03:31:54;;;;;;;5.67;4.07;;;14.50;99.90;;;;;;4918768;29;20462;-76
2022/10/24 03:34:23;;;;;;;6.80;3.87;;;14.50;99.90;;;;;;4918863;29;20933;-76
2022/10/24 03:36:51;;;;;;;6.13;3.27;;;14.50;99.90;;;;;;4918965;29;20516;-76
2022/10/24 03:39:19;;;;;;;7.60;3.40;;;14.50;99.90;;;;;;4918695;29;20946;-76
2022/10/24 03:41:47;;;;;;;5.70;3.23;;;14.40;99.90;;;;;;4918553;29;20888;-76
2022/10/24 03:44:15;;;;;;;6.60;3.73;;;14.40;99.90;;;;;;4917389;29;20527;-76
2022/10/24 03:46:44;;;;;;;8.47;3.90;;;14.40;99.90;;;;;;4918844;29;20459;-76
2022/10/24 03:49:12;;;;;;;10.70;6.10;;;14.30;99.90;;;;;;4918509;29;20452;-74
2022/10/24 03:51:41;;;;;;;13.60;7.87;;;14.30;99.90;;;;;;4919233;29;20467;-75
2022/10/24 03:54:10;;;;;;;8.13;5.13;;;14.30;99.90;;;;;;4918366;29;20464;-76
2022/10/24 03:56:38;;;;;;;12.20;8.73;;;14.30;99.90;;;;;;4916382;29;20464;-76
2022/10/24 03:59:06;;;;;;;19.67;12.83;;;14.30;99.90;;;;;;4917655;29;20492;-76
2022/10/24 04:01:35;;;;;;;10.23;5.80;;;14.20;99.90;;;;;;4917650;29;20459;-76
2022/10/24 04:04:03;;;;;;;8.60;4.33;;;14.20;99.90;;;;;;4917373;29;20503;-76
2022/10/24 04:06:31;;;;;;;11.13;4.17;;;14.20;99.90;;;;;;4917645;29;20435;-76
2022/10/24 04:09:05;;;;;;;6.47;4.60;;;14.20;99.90;;;;;;4916327;29;20459;-76
2022/10/24 04:11:33;;;;;;;9.10;4.63;;;14.10;99.90;;;;;;4917640;29;20540;-76
2022/10/24 04:14:01;;;;;;;5.63;3.90;;;14.10;99.90;;;;;;4916253;29;20603;-75
2022/10/24 04:16:34;;;;;;;7.97;3.60;;;14.10;99.90;;;;;;4918090;29;20762;-76
2022/10/24 04:19:02;;;;;;;8.40;4.60;;;14.10;99.90;;;;;;4915956;29;20508;-76
2022/10/24 04:21:31;;;;;;;8.30;4.23;;;14.10;99.90;;;;;;4917003;29;20464;-76
2022/10/24 04:23:59;;;;;;;12.33;8.17;;;14.10;99.90;;;;;;4917312;29;20531;-76
2022/10/24 04:26:29;;;;;;;8.80;5.50;;;14.10;99.90;;;;;;4917211;29;20444;-76
2022/10/24 04:28:57;;;;;;;7.83;4.80;;;14.10;99.90;;;;;;4917417;29;20456;-76
2022/10/24 04:31:25;;;;;;;8.17;4.50;;;14.10;99.90;;;;;;4915693;29;20512;-76
2022/10/24 04:33:53;;;;;;;6.40;3.93;;;14.00;99.90;;;;;;4917039;29;20444;-76
2022/10/24 04:36:21;;;;;;;6.20;4.40;;;14.10;99.90;;;;;;4916987;29;20436;-76
2022/10/24 04:38:49;;;;;;;7.10;4.50;;;14.00;99.90;;;;;;4915727;29;20520;-76
2022/10/24 04:41:17;;;;;;;10.17;6.80;;;14.00;99.90;;;;;;4917096;29;20496;-76
2022/10/24 04:43:47;;;;;;;12.43;5.37;;;14.00;99.90;;;;;;4916747;29;20468;-76
2022/10/24 04:46:15;;;;;;;8.40;4.47;;;14.00;99.90;;;;;;4917299;29;20771;-76
2022/10/24 04:48:43;;;;;;;8.37;4.07;;;14.00;99.90;;;;;;4915537;29;20829;-76
2022/10/24 04:51:11;;;;;;;8.27;4.77;;;14.00;99.90;;;;;;4916739;29;20516;-76
2022/10/24 04:53:39;;;;;;;8.07;4.00;;;14.00;99.90;;;;;;4916724;29;20452;-74
2022/10/24 04:56:08;;;;;;;6.30;4.20;;;14.00;99.90;;;;;;4905284;29;325920;-76
2022/10/24 04:58:36;;;;;;;6.53;4.20;;;14.10;99.90;;;;;;4917551;29;20448;-74
2022/10/24 05:01:05;;;;;;;8.17;4.50;;;14.00;99.90;;;;;;4916025;29;20476;-76
2022/10/24 05:03:34;;;;;;;7.53;3.80;;;14.10;99.90;;;;;;4917649;29;20479;-76
2022/10/24 05:06:02;;;;;;;7.13;4.10;;;14.10;99.90;;;;;;4917196;29;20515;-76
2022/10/24 05:08:30;;;;;;;9.57;3.60;;;14.10;99.90;;;;;;4916039;29;20885;-76
2022/10/24 05:10:58;;;;;;;6.10;3.40;;;14.10;99.90;;;;;;4917200;29;20476;-76
2022/10/24 05:13:26;;;;;;;8.63;4.33;;;14.10;99.90;;;;;;4915982;29;20531;-76
2022/10/24 05:16:02;;;;;;;8.93;5.23;;;14.10;99.90;;;;;;4915978;29;20436;-76
2022/10/24 05:18:32;;;;;;;7.17;5.03;;;14.10;99.90;;;;;;4917131;29;20444;-75
2022/10/24 05:21:00;;;;;;;7.20;4.27;;;14.10;99.90;;;;;;4915796;29;20527;-76
2022/10/24 05:23:28;;;;;;;8.30;3.90;;;14.10;99.90;;;;;;4917357;29;20497;-76
2022/10/24 05:25:56;;;;;;;6.80;3.50;;;14.10;99.90;;;;;;4916973;29;20989;-76
2022/10/24 05:28:25;;;;;;;6.00;3.33;;;14.10;99.90;;;;;;4916985;29;20455;-76
2022/10/24 05:30:53;;;;;;;7.00;4.30;;;14.10;99.90;;;;;;4917123;29;20451;-76
2022/10/24 05:33:22;;;;;;;8.33;4.53;;;14.10;99.90;;;;;;4917331;29;20444;-75
2022/10/24 05:35:52;;;;;;;6.10;4.40;;;14.10;99.90;;;;;;4915905;29;20453;-75
2022/10/24 05:38:20;;;;;;;9.50;5.10;;;14.10;99.90;;;;;;4915853;29;20519;-76
2022/10/24 05:40:50;;;;;;;8.00;4.90;;;14.10;99.90;;;;;;4919316;29;20467;-77
2022/10/24 05:43:18;;;;;;;11.00;4.97;;;14.10;99.90;;;;;;4919768;29;20458;-76
2022/10/24 05:45:48;;;;;;;6.13;4.20;;;14.10;99.90;;;;;;4920945;29;20479;-77
2022/10/24 05:48:16;;;;;;;11.50;4.67;;;14.20;99.90;;;;;;4919696;29;20874;-77
2022/10/24 05:50:44;;;;;;;8.63;4.80;;;14.10;99.90;;;;;;4919503;29;20543;-77
2022/10/24 05:53:13;;;;;;;6.17;3.93;;;14.20;99.90;;;;;;4920951;29;20456;-77
2022/10/24 05:55:42;;;;;;;8.33;4.30;;;14.20;99.90;;;;;;4919330;29;20472;-77
2022/10/24 05:58:10;;;;;;;4.87;3.37;;;14.20;99.90;;;;;;4919623;29;20464;-77
2022/10/24 06:00:38;;;;;;;7.67;4.30;;;14.20;99.90;;;;;;4920884;29;20467;-77
2022/10/24 06:03:06;;;;;;;7.03;4.57;;;14.20;99.90;;;;;;4920860;29;20508;-77
2022/10/24 06:05:34;;;;;;;8.30;4.40;;;14.20;99.90;;;;;;4919140;29;20544;-76
2022/10/24 06:08:02;;;;;;;8.60;4.07;;;14.20;99.90;;;;;;4919200;29;20563;-77
2022/10/24 06:10:32;;;;;;;6.43;3.47;;;14.20;99.90;;;;;;4919090;29;20476;-77
2022/10/24 06:13:00;;;;;;;8.17;3.90;;;14.20;99.90;;;;;;4920519;29;20475;-77
2022/10/24 06:15:28;;;;;;;8.27;4.13;;;14.20;99.90;;;;;;4920204;29;20444;-77
2022/10/24 06:17:56;;;;;;;7.80;3.73;;;14.30;99.90;;;;;;4918887;29;20452;-77
2022/10/24 06:20:24;;;;;;;6.80;3.57;;;14.30;99.90;;;;;;4918880;29;21070;-77
2022/10/24 06:22:53;;;;;;;7.90;3.77;;;14.30;99.90;;;;;;4918923;29;20444;-78
2022/10/24 06:25:21;;;;;;;7.40;3.70;;;14.30;99.90;;;;;;4920461;29;21053;-78
2022/10/24 06:27:50;;;;;;;5.80;3.50;;;14.30;99.90;;;;;;4918856;29;20860;-78
2022/10/24 06:30:19;;;;;;;6.67;3.90;;;14.30;99.90;;;;;;4918718;29;20480;-78
2022/10/24 06:32:47;;;;;;;47.27;10.23;;;14.30;99.90;;;;;;4920340;29;20452;-78
2022/10/24 06:35:15;;;;;;;18.17;5.37;;;14.30;99.90;;;;;;4920172;29;20448;-78
2022/10/24 06:37:43;;;;;;;61.87;10.20;;;14.30;99.90;;;;;;4918555;29;20463;-77
2022/10/24 06:40:15;;;;;;;34.13;9.17;;;14.30;99.90;;;;;;4919813;29;20475;-78
2022/10/24 06:42:43;;;;;;;65.13;13.80;;;14.20;99.90;;;;;;4918616;29;20452;-78
2022/10/24 06:45:13;;;;;;;49.90;11.20;;;14.20;99.90;;;;;;4919639;29;20799;-78
2022/10/24 06:47:41;;;;;;;58.93;12.87;;;14.20;99.90;;;;;;4918353;29;21021;-78
2022/10/24 06:50:10;;;;;;;73.37;13.63;;;14.20;99.90;;;;;;4919390;29;20463;-78
2022/10/24 06:52:38;;;;;;;67.53;13.60;;;14.20;99.90;;;;;;4918356;29;20459;-78
2022/10/24 06:55:07;;;;;;;15.57;5.30;;;14.20;99.90;;;;;;4919628;29;20457;-78
2022/10/24 06:57:35;;;;;;;10.33;4.60;;;14.20;99.90;;;;;;4918248;29;20798;-78
2022/10/24 07:00:04;;;;;;;10.43;4.40;;;14.20;99.90;;;;;;4919431;29;20459;-78
2022/10/24 07:02:34;;;;;;;13.57;5.17;;;14.20;99.90;;;;;;4918731;29;20444;-78
2022/10/24 07:05:02;;;;;;;6.50;4.10;;;14.20;99.90;;;;;;4918701;29;20524;-77
2022/10/24 07:07:30;;;;;;;11.60;5.30;;;14.20;99.90;;;;;;4918708;29;20452;-77
2022/10/24 07:09:59;;;;;;;13.43;5.00;;;14.20;99.90;;;;;;4918132;29;20832;-77
2022/10/24 07:12:27;;;;;;;7.87;3.90;;;14.30;99.90;;;;;;4918397;29;20449;-77
2022/10/24 07:14:55;;;;;;;38.67;9.00;;;14.30;99.90;;;;;;4920353;29;20452;-77
2022/10/24 07:17:23;;;;;;;12.00;4.37;;;14.30;99.90;;;;;;4918984;29;20453;-77
2022/10/24 07:19:56;;;;;;;6.70;3.63;;;14.30;99.90;;;;;;4918346;29;20460;-77
2022/10/24 07:22:24;;;;;;;19.17;6.27;;;14.30;99.90;;;;;;4918096;29;20480;-77
2022/10/24 07:24:56;;;;;;;11.57;4.40;;;14.30;99.90;;;;;;4917752;29;20467;-77
2022/10/24 07:27:24;;;;;;;14.40;8.30;;;14.40;99.90;;;;;;4918905;29;20451;-77
2022/10/24 07:29:53;;;;;;;10.60;5.20;;;14.40;99.90;;;;;;4917648;29;20455;-78
2022/10/24 07:32:21;;;;;;;12.10;6.00;;;14.40;99.90;;;;;;4918846;29;20942;-77
2022/10/24 07:34:49;;;;;;;8.07;4.30;;;14.40;99.90;;;;;;4917554;29;20959;-77
2022/10/24 07:37:19;;;;;;;10.30;4.20;;;14.50;99.90;;;;;;4917509;29;20533;-77
2022/10/24 07:39:47;;;;;;;7.40;3.33;;;14.50;99.90;;;;;;4917575;29;20459;-77
2022/10/24 07:42:17;;;;;;;4.80;3.00;;;14.50;99.90;;;;;;4920515;29;20452;-79
2022/10/24 07:44:46;;;;;;;9.10;3.70;;;14.50;99.90;;;;;;4920454;29;20464;-80
2022/10/24 07:47:14;;;;;;;11.27;4.80;;;14.60;99.90;;;;;;4919939;29;20476;-80
2022/10/24 07:49:42;;;;;;;7.00;4.20;;;14.60;99.90;;;;;;4922218;29;20452;-80
2022/10/24 07:52:10;;;;;;;7.80;3.30;;;14.70;99.90;;;;;;4924115;29;20472;-79
2022/10/24 07:54:40;;;;;;;6.70;2.93;;;14.80;99.90;;;;;;4919875;29;20459;-76
2022/10/24 07:57:08;;;;;;;5.23;2.60;;;14.90;99.90;;;;;;4918723;29;20848;-76
2022/10/24 07:59:36;;;;;;;7.27;3.30;;;14.90;99.90;;;;;;4918226;29;20456;-78
2022/10/24 08:02:11;;;;;;;6.00;2.50;;;15.00;99.90;;;;;;4917770;29;20554;-77
2022/10/24 08:04:39;;;;;;;5.77;2.93;;;15.10;99.90;;;;;;4918239;29;20456;-75
2022/10/24 08:07:11;;;;;;;5.60;2.20;;;15.20;99.90;;;;;;4917015;29;20891;-77
2022/10/24 08:09:43;;;;;;;6.07;2.97;;;15.20;99.90;;;;;;4918834;29;20436;-78
2022/10/24 08:12:12;;;;;;;23.50;6.03;;;15.20;99.90;;;;;;4917631;29;20817;-78
2022/10/24 08:14:41;;;;;;;13.77;4.40;;;15.20;99.90;;;;;;4919620;29;20950;-78
2022/10/24 08:17:10;;;;;;;8.40;3.57;;;15.30;99.90;;;;;;4918100;29;20463;-78
2022/10/24 08:19:40;;;;;;;6.17;2.97;;;15.30;99.90;;;;;;4918741;29;20966;-79
2022/10/24 08:22:12;;;;;;;11.20;3.40;;;15.40;99.90;;;;;;4919489;29;21046;-79
2022/10/24 08:24:40;;;;;;;8.20;2.73;;;15.40;99.90;;;;;;4920379;29;20448;-78
2022/10/24 08:27:09;;;;;;;5.10;2.60;;;15.40;99.90;;;;;;4919580;29;20450;-79
2022/10/24 08:29:37;;;;;;;5.33;2.50;;;15.40;99.90;;;;;;4920821;29;20436;-78
2022/10/24 08:32:06;;;;;;;9.67;3.40;;;15.50;99.90;;;;;;4918723;29;20474;-75
2022/10/24 08:34:34;;;;;;;11.60;3.77;;;15.50;99.90;;;;;;4918294;29;20922;-77
2022/10/24 08:37:03;;;;;;;6.73;3.60;;;15.50;99.90;;;;;;4918726;29;20459;-76
2022/10/24 08:39:31;;;;;;;4.80;3.00;;;15.60;99.90;;;;;;4916998;29;20448;-76
2022/10/24 08:42:03;;;;;;;7.37;2.90;;;15.60;99.90;;;;;;4917940;29;20468;-76
2022/10/24 08:44:36;;;;;;;7.20;2.70;;;15.70;99.90;;;;;;4918174;29;20772;-76
2022/10/24 08:47:08;;;;;;;7.33;3.20;;;15.70;99.90;;;;;;4916594;29;20464;-76
2022/10/24 08:49:40;;;;;;;5.63;2.83;;;15.80;99.90;;;;;;4916618;29;20507;-75
2022/10/24 08:52:18;;;;;;;8.13;2.37;;;15.90;99.90;;;;;;4917821;29;20464;-75
2022/10/24 08:54:46;;;;;;;7.57;2.90;;;16.00;99.90;;;;;;4917966;29;20460;-76
2022/10/24 08:57:22;;;;;;;5.90;2.80;;;16.00;99.90;;;;;;4918858;29;20444;-76
2022/10/24 08:59:53;;;;;;;4.10;2.30;;;16.10;99.90;;;;;;4918301;29;20419;-77
2022/10/24 09:02:24;;;;;;;3.60;1.90;;;16.20;99.90;;;;;;4917803;29;20399;-75
2022/10/24 09:04:57;;;;;;;4.33;2.60;;;16.30;99.90;;;;;;4916262;29;20487;-76
2022/10/24 09:07:25;;;;;;;5.57;2.17;;;16.40;99.90;;;;;;4918035;29;20832;-76
2022/10/24 09:10:03;;;;;;;8.00;2.80;;;16.40;99.90;;;;;;4917787;29;20434;-76
2022/10/24 09:12:31;;;;;;;4.20;2.00;;;16.50;99.90;;;;;;4917394;29;20841;-75
2022/10/24 09:15:01;;;;;;;4.53;1.97;;;16.60;99.90;;;;;;4916160;29;20507;-77
2022/10/24 09:17:31;;;;;;;9.07;2.67;;;16.60;99.90;;;;;;4916447;29;20449;-76
2022/10/24 09:20:04;;;;;;;4.60;2.50;;;16.70;99.90;;;;;;4916044;29;20483;-77
2022/10/24 09:22:34;;;;;;;4.60;2.30;;;16.80;99.90;;;;;;4917751;29;20459;-76
2022/10/24 09:25:08;;;;;;;7.07;2.47;;;16.80;99.90;;;;;;4916025;29;21037;-74
2022/10/24 09:27:39;;;;;;;4.83;2.40;;;16.90;99.90;;;;;;4917653;29;20443;-76
2022/10/24 09:30:16;;;;;;;4.40;1.77;;;17.00;99.90;;;;;;4916636;29;20448;-76
2022/10/24 09:32:45;;;;;;;8.10;2.77;;;17.10;99.90;;;;;;4915982;29;20441;-76
2022/10/24 09:35:17;;;;;;;4.90;2.20;;;17.10;99.90;;;;;;4917563;29;20507;-76
2022/10/24 09:37:48;;;;;;;8.57;2.50;;;17.20;99.90;;;;;;4916014;29;20864;-76
2022/10/24 09:40:21;;;;;;;7.00;1.87;;;17.20;99.90;;;;;;4917506;29;20765;-78
2022/10/24 09:43:00;;;;;;;6.63;2.13;;;17.20;99.90;;;;;;4917492;29;20436;-76
2022/10/24 09:45:39;;;;;;;10.70;2.87;;;17.30;99.90;;;;;;4916311;29;20418;-76
2022/10/24 09:48:18;;;;;;;5.83;2.83;;;17.40;99.90;;;;;;4917545;29;20430;-76
2022/10/24 09:50:48;;;;;;;7.77;2.17;;;17.40;99.90;;;;;;4917218;29;20478;-75
2022/10/24 09:53:24;;;;;;;8.23;2.60;;;17.50;99.90;;;;;;4917232;29;20450;-76
2022/10/24 09:55:55;;;;;;;9.20;2.70;;;17.60;99.90;;;;;;4917216;29;20459;-76
2022/10/24 09:58:31;;;;;;;7.53;2.37;;;17.60;99.90;;;;;;4917392;29;20407;-75
2022/10/24 10:01:04;;;;;;;7.80;2.80;;;17.70;99.90;;;;;;4916229;29;20872;-76
2022/10/24 10:03:33;;;;;;;5.00;2.07;;;17.80;99.90;;;;;;4917761;29;20471;-77
2022/10/24 10:06:05;;;;;;;7.57;2.10;;;17.80;99.90;;;;;;4915994;29;20419;-76
2022/10/24 10:08:35;;;;;;;6.87;2.30;;;17.80;99.90;;;;;;4917954;29;20469;-76
2022/10/24 10:11:06;;;;;;;8.63;2.17;;;17.90;99.90;;;;;;4916322;29;20532;-77
2022/10/24 10:13:44;;;;;;;4.17;1.70;;;17.90;99.90;;;;;;4916186;29;20446;-76
2022/10/24 10:16:23;;;;;;;6.07;2.70;;;17.90;99.90;;;;;;4916118;29;20448;-76
2022/10/24 10:18:55;;;;;;;7.90;2.10;;;17.90;99.90;;;;;;4917798;29;20395;-76
2022/10/24 10:21:24;;;;;;;5.40;2.20;;;18.00;99.90;;;;;;4917755;29;20443;-76
2022/10/24 10:23:54;;;;;;;8.67;2.67;;;18.00;99.90;;;;;;4917177;29;20449;-76
2022/10/24 10:26:27;;;;;;;6.13;2.10;;;18.00;99.90;;;;;;4918898;29;20426;-76
2022/10/24 10:29:01;;;;;;;7.70;1.90;;;18.00;99.90;;;;;;4920945;29;20429;-76
2022/10/24 10:31:40;;;;;;;8.67;2.33;;;18.00;99.90;;;;;;4919587;29;20482;-76
2022/10/24 10:34:15;;;;;;;6.90;2.30;;;18.00;99.90;;;;;;4919503;29;20444;-76
2022/10/24 10:37:18;;;;;;;4.03;1.97;;;18.00;99.90;;;;;;4920976;29;20494;-76
2022/10/24 10:40:24;;;;;;;7.30;1.60;;;18.00;99.90;;;;;;4909869;29;20448;-76
2022/10/24 10:43:04;;;;;;;6.23;2.00;;;18.00;99.90;;;;;;4897270;29;20448;-76
2022/10/24 10:45:36;;;;;;;6.57;2.13;;;18.00;99.90;;;;;;4920770;29;20961;-78
2022/10/24 10:48:31;;;;;;;5.77;2.30;;;18.10;99.90;;;;;;4919593;29;20487;-77
2022/10/24 10:51:04;;;;;;;9.43;2.30;;;18.10;99.90;;;;;;4920693;29;20460;-77
2022/10/24 10:53:40;;;;;;;5.57;2.13;;;18.00;99.90;;;;;;4921158;29;20836;-77
2022/10/24 10:56:21;;;;;;;5.50;1.60;;;18.10;99.90;;;;;;4918912;29;20827;-76
2022/10/24 10:58:58;;;;;;;5.27;1.93;;;18.20;99.90;;;;;;4919294;29;20508;-76
2022/10/24 11:01:37;;;;;;;5.83;1.80;;;18.20;99.90;;;;;;4919465;29;20471;-76
2022/10/24 11:04:17;;;;;;;5.87;1.83;;;18.30;99.90;;;;;;4919850;29;20454;-76
2022/10/24 11:06:52;;;;;;;5.47;2.03;;;18.30;99.90;;;;;;4919611;29;20502;-76
2022/10/24 11:09:27;;;;;;;5.43;1.70;;;18.30;99.90;;;;;;4919724;29;20432;-76
2022/10/24 11:12:02;;;;;;;3.63;1.70;;;18.30;99.90;;;;;;4918363;29;20487;-78
2022/10/24 11:14:34;;;;;;;5.50;1.77;;;18.30;99.90;;;;;;4918199;29;20786;-76
2022/10/24 11:17:17;;;;;;;5.23;2.00;;;18.30;99.90;;;;;;4919457;29;20897;-76
2022/10/24 11:19:56;;;;;;;6.73;2.00;;;18.30;99.90;;;;;;4918240;29;20446;-76
2022/10/24 11:22:29;;;;;;;6.87;2.23;;;18.30;99.90;;;;;;4917944;29;20792;-76
2022/10/24 11:25:02;;;;;;;4.30;1.97;;;18.30;99.90;;;;;;4919343;29;20433;-76
2022/10/24 11:27:38;;;;;;;5.67;2.40;;;18.30;99.90;;;;;;4919294;29;20441;-76
2022/10/24 11:30:14;;;;;;;6.50;2.27;;;18.30;99.90;;;;;;4917833;29;20440;-76
2022/10/24 11:32:48;;;;;;;5.73;2.13;;;18.30;99.90;;;;;;4919266;29;20435;-76
2022/10/24 11:35:32;;;;;;;5.63;2.10;;;18.30;99.90;;;;;;4918924;29;20910;-76
2022/10/24 11:38:07;;;;;;;6.13;2.63;;;18.30;99.90;;;;;;4918143;29;20754;-76
2022/10/24 11:40:36;;;;;;;3.70;1.53;;;18.40;99.90;;;;;;4917551;29;20480;-77
2022/10/24 11:43:14;;;;;;;6.40;2.63;;;18.40;99.90;;;;;;4918764;29;20535;-77
2022/10/24 11:45:48;;;;;;;6.07;1.93;;;18.40;99.90;;;;;;4917562;29;20942;-77
2022/10/24 11:48:23;;;;;;;10.00;3.40;;;18.40;99.90;;;;;;4917393;29;20464;-77
2022/10/24 11:50:55;;;;;;;5.77;2.10;;;18.40;99.90;;;;;;4917428;29;20483;-77
2022/10/24 11:53:47;;;;;;;5.07;1.97;;;18.40;99.90;;;;;;4918581;29;20451;-77
2022/10/24 11:56:19;;;;;;;4.77;1.90;;;18.40;99.90;;;;;;4912635;29;20469;-76
2022/10/24 11:58:57;;;;;;;4.57;1.83;;;18.40;99.90;;;;;;4918369;29;20907;-76
2022/10/24 12:02:02;;;;;;;4.57;2.00;;;18.40;99.90;;;;;;4918691;29;20804;-76
2022/10/24 12:05:15;;;;;;;6.13;1.97;;;18.40;99.90;;;;;;4908101;29;20438;-77
2022/10/24 12:08:11;;;;;;;5.03;2.00;;;18.30;99.90;;;;;;4904514;29;20504;-76
2022/10/24 12:11:25;;;;;;;6.00;1.57;;;18.30;99.90;;;;;;4918542;29;20468;-77
2022/10/24 12:14:32;;;;;;;4.63;2.40;;;18.30;99.90;;;;;;4899669;29;20877;-76
2022/10/24 12:17:35;;;;;;;7.67;1.80;;;18.30;99.90;;;;;;4917010;29;20558;-76
2022/10/24 12:20:07;;;;;;;4.10;2.00;;;18.30;99.90;;;;;;4916900;29;20430;-77
2022/10/24 12:22:37;;;;;;;6.17;2.20;;;18.30;99.90;;;;;;4918444;29;20440;-76
2022/10/24 12:25:17;;;;;;;5.80;2.03;;;18.30;99.90;;;;;;4916940;29;20942;-77
2022/10/24 12:27:53;;;;;;;6.63;2.40;;;18.30;99.90;;;;;;4916776;29;20986;-77
2022/10/24 12:30:24;;;;;;;6.73;2.20;;;18.30;99.90;;;;;;4916788;29;20808;-77
2022/10/24 12:32:56;;;;;;;4.57;2.03;;;18.30;99.90;;;;;;4916654;29;20965;-77
2022/10/24 12:35:50;;;;;;;6.33;2.17;;;18.40;99.90;;;;;;4918023;29;20444;-77
2022/10/24 12:38:54;;;;;;;4.80;1.67;;;18.40;99.90;;;;;;4908004;29;20487;-74
2022/10/24 12:41:41;;;;;;;5.13;2.00;;;18.30;99.90;;;;;;4915390;29;20476;-78
2022/10/24 12:44:50;;;;;;;7.13;1.93;;;18.30;99.90;;;;;;4917993;29;20842;-78
2022/10/24 12:47:37;;;;;;;6.00;1.90;;;18.30;99.90;;;;;;4916464;29;20449;-78
2022/10/24 12:50:50;;;;;;;6.00;1.40;;;18.30;99.90;;;;;;4918230;29;20966;-77
2022/10/24 12:53:31;;;;;;;4.67;1.87;;;18.30;99.90;;;;;;4881430;29;20844;-78
2022/10/24 12:56:08;;;;;;;5.53;2.07;;;18.30;99.90;;;;;;4911055;29;20474;-78
2022/10/24 12:58:41;;;;;;;4.80;1.60;;;18.30;99.90;;;;;;4917505;29;20428;-77
2022/10/24 13:01:21;;;;;;;5.30;2.47;;;18.30;99.90;;;;;;4916178;29;20503;-78
2022/10/24 13:04:24;;;;;;;6.20;1.70;;;18.30;99.90;;;;;;4916229;29;20450;-78
2022/10/24 13:07:06;;;;;;;5.77;1.73;;;18.30;99.90;;;;;;4916911;29;20830;-77
2022/10/24 13:09:45;;;;;;;7.23;1.97;;;18.30;99.90;;;;;;4917447;29;20466;-78
2022/10/24 13:12:42;;;;;;;7.20;1.97;;;18.30;99.90;;;;;;4915972;29;20855;-77
2022/10/24 13:15:35;;;;;;;5.20;1.67;;;18.30;99.90;;;;;;4917203;29;21002;-77